sensor_id;sensor_type;location;lat;lon;timestamp;P1;durP1;ratioP1;P2;durP2;ratioP2
37477;SDS011;23334;54.316;10.182;2023-10-19T00:02:04;11.50;;;3.23;;
37477;SDS011;23334;54.316;10.182;2023-10-19T00:04:31;6.57;;;2.83;;
37477;SDS011;23334;54.316;10.182;2023-10-19T00:06:59;11.70;;;3.57;;
37477;SDS011;23334;54.316;10.182;2023-10-19T00:09:25;8.37;;;3.03;;
37477;SDS011;23334;54.316;10.182;2023-10-19T00:11:56;17.10;;;4.07;;
37477;SDS011;23334;54.316;10.182;2023-10-19T00:14:22;13.93;;;3.43;;
37477;SDS011;23334;54.316;10.182;2023-10-19T00:16:51;6.97;;;2.90;;
37477;SDS011;23334;54.316;10.182;2023-10-19T00:19:25;24.50;;;4.70;;
37477;SDS011;23334;54.316;10.182;2023-10-19T00:21:52;9.30;;;3.13;;
37477;SDS011;23334;54.316;10.182;2023-10-19T00:24:32;17.50;;;3.57;;
37477;SDS011;23334;54.316;10.182;2023-10-19T00:26:58;9.33;;;2.90;;
37477;SDS011;23334;54.316;10.182;2023-10-19T00:29:31;8.50;;;3.40;;
37477;SDS011;23334;54.316;10.182;2023-10-19T00:31:58;11.23;;;3.70;;
37477;SDS011;23334;54.316;10.182;2023-10-19T00:34:25;5.93;;;2.40;;
37477;SDS011;23334;54.316;10.182;2023-10-19T00:36:54;19.47;;;3.63;;
37477;SDS011;23334;54.316;10.182;2023-10-19T00:39:21;17.60;;;4.13;;
37477;SDS011;23334;54.316;10.182;2023-10-19T00:41:48;13.27;;;4.40;;
37477;SDS011;23334;54.316;10.182;2023-10-19T00:44:14;12.70;;;3.90;;
37477;SDS011;23334;54.316;10.182;2023-10-19T00:46:47;7.20;;;3.27;;
37477;SDS011;23334;54.316;10.182;2023-10-19T00:49:18;9.23;;;3.53;;
37477;SDS011;23334;54.316;10.182;2023-10-19T00:51:49;25.97;;;5.20;;
37477;SDS011;23334;54.316;10.182;2023-10-19T00:54:25;10.90;;;3.50;;
37477;SDS011;23334;54.316;10.182;2023-10-19T00:56:57;9.13;;;3.50;;
37477;SDS011;23334;54.316;10.182;2023-10-19T00:59:28;11.10;;;4.63;;
37477;SDS011;23334;54.316;10.182;2023-10-19T01:02:00;12.83;;;3.73;;
37477;SDS011;23334;54.316;10.182;2023-10-19T01:04:43;9.53;;;2.97;;
37477;SDS011;23334;54.316;10.182;2023-10-19T01:07:09;6.77;;;3.57;;
37477;SDS011;23334;54.316;10.182;2023-10-19T01:09:47;6.80;;;3.10;;
37477;SDS011;23334;54.316;10.182;2023-10-19T01:12:17;8.73;;;3.40;;
37477;SDS011;23334;54.316;10.182;2023-10-19T01:17:38;9.57;;;3.30;;
37477;SDS011;23334;54.316;10.182;2023-10-19T01:20:08;8.07;;;3.50;;
37477;SDS011;23334;54.316;10.182;2023-10-19T01:22:58;15.00;;;4.20;;
37477;SDS011;23334;54.316;10.182;2023-10-19T01:25:45;12.53;;;3.47;;
37477;SDS011;23334;54.316;10.182;2023-10-19T01:28:22;12.63;;;3.77;;
37477;SDS011;23334;54.316;10.182;2023-10-19T01:31:03;6.90;;;3.90;;
37477;SDS011;23334;54.316;10.182;2023-10-19T01:33:31;10.57;;;3.63;;
37477;SDS011;23334;54.316;10.182;2023-10-19T01:35:59;6.83;;;3.13;;
37477;SDS011;23334;54.316;10.182;2023-10-19T01:38:37;15.47;;;3.77;;
37477;SDS011;23334;54.316;10.182;2023-10-19T01:41:04;9.03;;;3.27;;
37477;SDS011;23334;54.316;10.182;2023-10-19T01:43:43;10.27;;;3.90;;
37477;SDS011;23334;54.316;10.182;2023-10-19T01:46:10;7.43;;;3.00;;
37477;SDS011;23334;54.316;10.182;2023-10-19T01:48:37;14.73;;;3.80;;
37477;SDS011;23334;54.316;10.182;2023-10-19T01:51:07;16.83;;;4.80;;
37477;SDS011;23334;54.316;10.182;2023-10-19T01:53:39;10.53;;;3.80;;
37477;SDS011;23334;54.316;10.182;2023-10-19T01:56:07;11.20;;;3.97;;
37477;SDS011;23334;54.316;10.182;2023-10-19T01:58:37;8.20;;;3.30;;
37477;SDS011;23334;54.316;10.182;2023-10-19T02:01:05;4.90;;;3.43;;
37477;SDS011;23334;54.316;10.182;2023-10-19T02:03:39;13.77;;;4.63;;
37477;SDS011;23334;54.316;10.182;2023-10-19T02:06:12;18.73;;;4.53;;
37477;SDS011;23334;54.316;10.182;2023-10-19T02:08:45;7.80;;;3.73;;
37477;SDS011;23334;54.316;10.182;2023-10-19T02:11:13;10.80;;;4.80;;
37477;SDS011;23334;54.316;10.182;2023-10-19T02:13:43;12.57;;;4.53;;
37477;SDS011;23334;54.316;10.182;2023-10-19T02:16:11;9.83;;;4.50;;
37477;SDS011;23334;54.316;10.182;2023-10-19T02:18:37;12.33;;;5.00;;
37477;SDS011;23334;54.316;10.182;2023-10-19T02:21:03;23.97;;;5.60;;
37477;SDS011;23334;54.316;10.182;2023-10-19T02:23:31;13.93;;;4.80;;
37477;SDS011;23334;54.316;10.182;2023-10-19T02:26:00;15.37;;;5.20;;
37477;SDS011;23334;54.316;10.182;2023-10-19T02:28:28;9.03;;;4.63;;
37477;SDS011;23334;54.316;10.182;2023-10-19T02:30:56;10.97;;;4.87;;
37477;SDS011;23334;54.316;10.182;2023-10-19T02:33:37;24.83;;;6.03;;
37477;SDS011;23334;54.316;10.182;2023-10-19T02:36:03;10.20;;;4.53;;
37477;SDS011;23334;54.316;10.182;2023-10-19T02:38:30;9.50;;;4.63;;
37477;SDS011;23334;54.316;10.182;2023-10-19T02:40:56;12.83;;;5.63;;
37477;SDS011;23334;54.316;10.182;2023-10-19T02:43:23;19.50;;;4.70;;
37477;SDS011;23334;54.316;10.182;2023-10-19T02:45:49;8.87;;;4.20;;
37477;SDS011;23334;54.316;10.182;2023-10-19T02:48:16;25.77;;;5.50;;
37477;SDS011;23334;54.316;10.182;2023-10-19T02:50:42;18.47;;;5.43;;
37477;SDS011;23334;54.316;10.182;2023-10-19T02:53:08;26.80;;;5.23;;
37477;SDS011;23334;54.316;10.182;2023-10-19T02:55:38;12.37;;;5.30;;
37477;SDS011;23334;54.316;10.182;2023-10-19T02:58:05;11.07;;;4.30;;
37477;SDS011;23334;54.316;10.182;2023-10-19T03:00:31;12.80;;;5.60;;
37477;SDS011;23334;54.316;10.182;2023-10-19T03:03:01;16.60;;;5.63;;
37477;SDS011;23334;54.316;10.182;2023-10-19T03:05:30;12.70;;;5.00;;
37477;SDS011;23334;54.316;10.182;2023-10-19T03:07:59;24.27;;;6.20;;
37477;SDS011;23334;54.316;10.182;2023-10-19T03:10:25;11.53;;;4.50;;
37477;SDS011;23334;54.316;10.182;2023-10-19T03:13:07;8.83;;;5.40;;
37477;SDS011;23334;54.316;10.182;2023-10-19T03:15:33;9.50;;;4.10;;
37477;SDS011;23334;54.316;10.182;2023-10-19T03:18:01;17.90;;;5.27;;
37477;SDS011;23334;54.316;10.182;2023-10-19T03:20:29;18.97;;;5.43;;
37477;SDS011;23334;54.316;10.182;2023-10-19T03:22:59;13.43;;;5.30;;
37477;SDS011;23334;54.316;10.182;2023-10-19T03:25:27;14.67;;;5.90;;
37477;SDS011;23334;54.316;10.182;2023-10-19T03:28:11;19.03;;;5.40;;
37477;SDS011;23334;54.316;10.182;2023-10-19T03:30:38;21.87;;;5.20;;
37477;SDS011;23334;54.316;10.182;2023-10-19T03:33:04;13.30;;;5.47;;
37477;SDS011;23334;54.316;10.182;2023-10-19T03:35:33;17.67;;;5.37;;
37477;SDS011;23334;54.316;10.182;2023-10-19T03:38:00;10.63;;;5.37;;
37477;SDS011;23334;54.316;10.182;2023-10-19T03:40:26;7.43;;;4.83;;
37477;SDS011;23334;54.316;10.182;2023-10-19T03:42:56;10.70;;;5.80;;
37477;SDS011;23334;54.316;10.182;2023-10-19T03:45:23;24.17;;;6.30;;
37477;SDS011;23334;54.316;10.182;2023-10-19T03:47:50;21.30;;;6.50;;
37477;SDS011;23334;54.316;10.182;2023-10-19T03:50:18;19.03;;;6.53;;
37477;SDS011;23334;54.316;10.182;2023-10-19T03:52:47;15.57;;;5.60;;
37477;SDS011;23334;54.316;10.182;2023-10-19T03:55:12;15.37;;;5.67;;
37477;SDS011;23334;54.316;10.182;2023-10-19T03:58:02;21.77;;;6.60;;
37477;SDS011;23334;54.316;10.182;2023-10-19T04:00:28;11.67;;;5.47;;
37477;SDS011;23334;54.316;10.182;2023-10-19T04:02:58;12.60;;;5.67;;
37477;SDS011;23334;54.316;10.182;2023-10-19T04:05:24;13.23;;;6.00;;
37477;SDS011;23334;54.316;10.182;2023-10-19T04:07:51;19.43;;;5.93;;
37477;SDS011;23334;54.316;10.182;2023-10-19T04:10:20;19.93;;;6.43;;
37477;SDS011;23334;54.316;10.182;2023-10-19T04:13:03;12.37;;;5.60;;
37477;SDS011;23334;54.316;10.182;2023-10-19T04:15:30;12.47;;;5.80;;
37477;SDS011;23334;54.316;10.182;2023-10-19T04:17:58;13.73;;;5.83;;
37477;SDS011;23334;54.316;10.182;2023-10-19T04:20:25;16.30;;;5.03;;
37477;SDS011;23334;54.316;10.182;2023-10-19T04:22:55;25.50;;;6.23;;
37477;SDS011;23334;54.316;10.182;2023-10-19T04:25:31;15.40;;;6.10;;
37477;SDS011;23334;54.316;10.182;2023-10-19T04:27:56;13.73;;;6.57;;
37477;SDS011;23334;54.316;10.182;2023-10-19T04:30:23;10.80;;;5.50;;
37477;SDS011;23334;54.316;10.182;2023-10-19T04:32:51;11.97;;;5.60;;
37477;SDS011;23334;54.316;10.182;2023-10-19T04:35:17;12.90;;;4.87;;
37477;SDS011;23334;54.316;10.182;2023-10-19T04:37:50;24.63;;;6.60;;
37477;SDS011;23334;54.316;10.182;2023-10-19T04:40:17;22.80;;;6.53;;
37477;SDS011;23334;54.316;10.182;2023-10-19T04:42:42;13.17;;;5.50;;
37477;SDS011;23334;54.316;10.182;2023-10-19T04:45:08;13.20;;;6.27;;
37477;SDS011;23334;54.316;10.182;2023-10-19T04:47:37;15.77;;;5.80;;
37477;SDS011;23334;54.316;10.182;2023-10-19T04:50:03;15.33;;;5.70;;
37477;SDS011;23334;54.316;10.182;2023-10-19T04:52:29;11.50;;;5.50;;
37477;SDS011;23334;54.316;10.182;2023-10-19T04:54:56;15.30;;;6.07;;
37477;SDS011;23334;54.316;10.182;2023-10-19T04:57:22;17.67;;;5.30;;
37477;SDS011;23334;54.316;10.182;2023-10-19T04:59:48;39.27;;;7.87;;
37477;SDS011;23334;54.316;10.182;2023-10-19T05:02:15;12.10;;;5.90;;
37477;SDS011;23334;54.316;10.182;2023-10-19T05:04:42;19.17;;;5.87;;
37477;SDS011;23334;54.316;10.182;2023-10-19T05:07:08;10.80;;;5.27;;
37477;SDS011;23334;54.316;10.182;2023-10-19T05:09:37;13.93;;;5.90;;
37477;SDS011;23334;54.316;10.182;2023-10-19T05:12:08;20.30;;;5.70;;
37477;SDS011;23334;54.316;10.182;2023-10-19T05:14:41;15.27;;;5.83;;
37477;SDS011;23334;54.316;10.182;2023-10-19T05:17:08;14.40;;;5.33;;
37477;SDS011;23334;54.316;10.182;2023-10-19T05:19:35;20.07;;;5.47;;
37477;SDS011;23334;54.316;10.182;2023-10-19T05:22:02;11.23;;;5.27;;
37477;SDS011;23334;54.316;10.182;2023-10-19T05:24:29;14.30;;;5.20;;
37477;SDS011;23334;54.316;10.182;2023-10-19T05:26:55;15.53;;;6.03;;
37477;SDS011;23334;54.316;10.182;2023-10-19T05:29:22;20.77;;;5.50;;
37477;SDS011;23334;54.316;10.182;2023-10-19T05:31:51;13.40;;;5.27;;
37477;SDS011;23334;54.316;10.182;2023-10-19T05:34:23;11.50;;;4.83;;
37477;SDS011;23334;54.316;10.182;2023-10-19T05:36:50;13.97;;;5.30;;
37477;SDS011;23334;54.316;10.182;2023-10-19T05:39:16;10.40;;;4.80;;
37477;SDS011;23334;54.316;10.182;2023-10-19T05:41:42;13.47;;;4.60;;
37477;SDS011;23334;54.316;10.182;2023-10-19T05:44:08;25.17;;;5.00;;
37477;SDS011;23334;54.316;10.182;2023-10-19T05:46:36;16.40;;;5.17;;
37477;SDS011;23334;54.316;10.182;2023-10-19T05:49:03;18.03;;;5.00;;
37477;SDS011;23334;54.316;10.182;2023-10-19T05:51:29;8.27;;;4.43;;
37477;SDS011;23334;54.316;10.182;2023-10-19T05:53:55;15.90;;;5.57;;
37477;SDS011;23334;54.316;10.182;2023-10-19T05:56:26;27.77;;;5.90;;
37477;SDS011;23334;54.316;10.182;2023-10-19T05:58:52;18.83;;;5.73;;
37477;SDS011;23334;54.316;10.182;2023-10-19T06:01:20;16.00;;;4.70;;
37477;SDS011;23334;54.316;10.182;2023-10-19T06:03:47;13.60;;;4.87;;
37477;SDS011;23334;54.316;10.182;2023-10-19T06:06:12;11.63;;;4.80;;
37477;SDS011;23334;54.316;10.182;2023-10-19T06:08:39;11.37;;;4.33;;
37477;SDS011;23334;54.316;10.182;2023-10-19T06:11:07;16.57;;;4.67;;
37477;SDS011;23334;54.316;10.182;2023-10-19T06:13:34;11.30;;;4.80;;
37477;SDS011;23334;54.316;10.182;2023-10-19T06:16:00;15.33;;;4.97;;
37477;SDS011;23334;54.316;10.182;2023-10-19T06:18:26;17.37;;;4.90;;
37477;SDS011;23334;54.316;10.182;2023-10-19T06:20:54;13.63;;;5.10;;
37477;SDS011;23334;54.316;10.182;2023-10-19T06:23:20;25.73;;;5.50;;
37477;SDS011;23334;54.316;10.182;2023-10-19T06:25:46;11.47;;;4.07;;
37477;SDS011;23334;54.316;10.182;2023-10-19T06:28:13;8.17;;;3.80;;
37477;SDS011;23334;54.316;10.182;2023-10-19T06:30:40;9.57;;;4.30;;
37477;SDS011;23334;54.316;10.182;2023-10-19T06:33:06;23.03;;;5.03;;
37477;SDS011;23334;54.316;10.182;2023-10-19T06:35:34;20.53;;;5.23;;
37477;SDS011;23334;54.316;10.182;2023-10-19T06:38:02;13.60;;;4.30;;
37477;SDS011;23334;54.316;10.182;2023-10-19T06:40:29;9.77;;;3.80;;
37477;SDS011;23334;54.316;10.182;2023-10-19T06:42:56;11.10;;;3.80;;
37477;SDS011;23334;54.316;10.182;2023-10-19T06:45:22;11.27;;;4.60;;
37477;SDS011;23334;54.316;10.182;2023-10-19T06:47:49;9.80;;;4.33;;
37477;SDS011;23334;54.316;10.182;2023-10-19T06:50:19;7.93;;;3.27;;
37477;SDS011;23334;54.316;10.182;2023-10-19T06:52:46;19.07;;;4.73;;
37477;SDS011;23334;54.316;10.182;2023-10-19T06:55:13;15.20;;;5.33;;
37477;SDS011;23334;54.316;10.182;2023-10-19T06:57:45;13.47;;;3.80;;
37477;SDS011;23334;54.316;10.182;2023-10-19T07:00:18;22.70;;;5.20;;
37477;SDS011;23334;54.316;10.182;2023-10-19T07:02:47;16.97;;;5.03;;
37477;SDS011;23334;54.316;10.182;2023-10-19T07:05:16;14.13;;;4.20;;
37477;SDS011;23334;54.316;10.182;2023-10-19T07:07:43;14.50;;;4.23;;
37477;SDS011;23334;54.316;10.182;2023-10-19T07:10:10;12.27;;;4.30;;
37477;SDS011;23334;54.316;10.182;2023-10-19T07:12:44;16.80;;;4.80;;
37477;SDS011;23334;54.316;10.182;2023-10-19T07:15:11;53.43;;;7.77;;
37477;SDS011;23334;54.316;10.182;2023-10-19T07:17:47;19.10;;;4.80;;
37477;SDS011;23334;54.316;10.182;2023-10-19T07:20:14;11.40;;;4.07;;
37477;SDS011;23334;54.316;10.182;2023-10-19T07:23:01;14.13;;;4.17;;
37477;SDS011;23334;54.316;10.182;2023-10-19T07:25:33;12.67;;;4.30;;
37477;SDS011;23334;54.316;10.182;2023-10-19T07:28:07;17.27;;;5.20;;
37477;SDS011;23334;54.316;10.182;2023-10-19T07:30:33;20.70;;;4.90;;
37477;SDS011;23334;54.316;10.182;2023-10-19T07:33:02;10.47;;;3.70;;
37477;SDS011;23334;54.316;10.182;2023-10-19T07:35:33;11.30;;;4.50;;
37477;SDS011;23334;54.316;10.182;2023-10-19T07:37:59;9.03;;;3.90;;
37477;SDS011;23334;54.316;10.182;2023-10-19T07:40:26;14.67;;;4.50;;
37477;SDS011;23334;54.316;10.182;2023-10-19T07:42:52;24.50;;;5.40;;
37477;SDS011;23334;54.316;10.182;2023-10-19T07:45:22;20.83;;;5.67;;
37477;SDS011;23334;54.316;10.182;2023-10-19T07:47:48;15.53;;;4.73;;
37477;SDS011;23334;54.316;10.182;2023-10-19T07:50:16;12.10;;;4.20;;
37477;SDS011;23334;54.316;10.182;2023-10-19T07:52:45;16.77;;;4.83;;
37477;SDS011;23334;54.316;10.182;2023-10-19T07:55:15;15.70;;;4.20;;
37477;SDS011;23334;54.316;10.182;2023-10-19T07:57:41;17.33;;;5.17;;
37477;SDS011;23334;54.316;10.182;2023-10-19T08:00:07;14.60;;;5.00;;
37477;SDS011;23334;54.316;10.182;2023-10-19T08:02:35;36.27;;;6.27;;
37477;SDS011;23334;54.316;10.182;2023-10-19T08:05:03;12.90;;;4.50;;
37477;SDS011;23334;54.316;10.182;2023-10-19T08:07:29;10.80;;;4.80;;
37477;SDS011;23334;54.316;10.182;2023-10-19T08:09:55;21.83;;;4.80;;
37477;SDS011;23334;54.316;10.182;2023-10-19T08:12:24;11.30;;;5.30;;
37477;SDS011;23334;54.316;10.182;2023-10-19T08:14:51;16.30;;;4.30;;
37477;SDS011;23334;54.316;10.182;2023-10-19T08:17:17;12.20;;;4.30;;
37477;SDS011;23334;54.316;10.182;2023-10-19T08:19:44;15.97;;;4.13;;
37477;SDS011;23334;54.316;10.182;2023-10-19T08:22:10;7.93;;;3.57;;
37477;SDS011;23334;54.316;10.182;2023-10-19T08:24:40;16.17;;;4.70;;
37477;SDS011;23334;54.316;10.182;2023-10-19T08:27:08;10.73;;;4.00;;
37477;SDS011;23334;54.316;10.182;2023-10-19T08:29:36;18.73;;;4.80;;
37477;SDS011;23334;54.316;10.182;2023-10-19T08:32:02;16.30;;;4.90;;
37477;SDS011;23334;54.316;10.182;2023-10-19T08:34:27;10.13;;;4.63;;
37477;SDS011;23334;54.316;10.182;2023-10-19T08:36:54;19.30;;;5.30;;
37477;SDS011;23334;54.316;10.182;2023-10-19T08:39:20;14.03;;;4.80;;
37477;SDS011;23334;54.316;10.182;2023-10-19T08:41:47;13.00;;;4.27;;
37477;SDS011;23334;54.316;10.182;2023-10-19T08:44:18;13.37;;;4.63;;
37477;SDS011;23334;54.316;10.182;2023-10-19T08:46:44;24.47;;;5.80;;
37477;SDS011;23334;54.316;10.182;2023-10-19T08:49:13;27.70;;;5.43;;
37477;SDS011;23334;54.316;10.182;2023-10-19T08:51:40;16.83;;;4.90;;
37477;SDS011;23334;54.316;10.182;2023-10-19T08:54:11;16.07;;;4.10;;
37477;SDS011;23334;54.316;10.182;2023-10-19T08:56:38;13.37;;;4.50;;
37477;SDS011;23334;54.316;10.182;2023-10-19T08:59:07;8.83;;;3.73;;
37477;SDS011;23334;54.316;10.182;2023-10-19T09:01:33;18.07;;;4.60;;
37477;SDS011;23334;54.316;10.182;2023-10-19T09:04:00;13.73;;;4.23;;
37477;SDS011;23334;54.316;10.182;2023-10-19T09:06:26;16.97;;;5.27;;
37477;SDS011;23334;54.316;10.182;2023-10-19T09:08:57;14.37;;;4.57;;
37477;SDS011;23334;54.316;10.182;2023-10-19T09:11:23;16.73;;;5.20;;
37477;SDS011;23334;54.316;10.182;2023-10-19T09:13:52;9.83;;;4.27;;
37477;SDS011;23334;54.316;10.182;2023-10-19T09:16:21;17.37;;;4.90;;
37477;SDS011;23334;54.316;10.182;2023-10-19T09:18:48;26.23;;;6.10;;
37477;SDS011;23334;54.316;10.182;2023-10-19T09:21:17;15.77;;;4.93;;
37477;SDS011;23334;54.316;10.182;2023-10-19T09:23:49;20.23;;;5.20;;
37477;SDS011;23334;54.316;10.182;2023-10-19T09:26:15;9.40;;;4.70;;
37477;SDS011;23334;54.316;10.182;2023-10-19T09:28:42;29.13;;;6.23;;
37477;SDS011;23334;54.316;10.182;2023-10-19T09:31:12;28.93;;;6.90;;
37477;SDS011;23334;54.316;10.182;2023-10-19T09:33:38;21.73;;;6.60;;
37477;SDS011;23334;54.316;10.182;2023-10-19T09:36:06;12.27;;;4.80;;
37477;SDS011;23334;54.316;10.182;2023-10-19T09:38:38;16.03;;;5.60;;
37477;SDS011;23334;54.316;10.182;2023-10-19T09:41:06;15.93;;;5.60;;
37477;SDS011;23334;54.316;10.182;2023-10-19T09:43:35;21.77;;;5.50;;
37477;SDS011;23334;54.316;10.182;2023-10-19T09:46:07;23.27;;;6.47;;
37477;SDS011;23334;54.316;10.182;2023-10-19T09:51:10;12.60;;;6.13;;
37477;SDS011;23334;54.316;10.182;2023-10-19T09:53:37;16.27;;;5.80;;
37477;SDS011;23334;54.316;10.182;2023-10-19T09:56:05;20.57;;;6.00;;
37477;SDS011;23334;54.316;10.182;2023-10-19T09:58:36;12.17;;;5.20;;
37477;SDS011;23334;54.316;10.182;2023-10-19T10:01:05;25.43;;;6.10;;
37477;SDS011;23334;54.316;10.182;2023-10-19T10:03:52;17.63;;;5.97;;
37477;SDS011;23334;54.316;10.182;2023-10-19T10:06:28;21.83;;;6.47;;
37477;SDS011;23334;54.316;10.182;2023-10-19T10:09:18;16.33;;;5.20;;
37477;SDS011;23334;54.316;10.182;2023-10-19T10:11:49;14.47;;;6.33;;
37477;SDS011;23334;54.316;10.182;2023-10-19T10:14:24;11.60;;;4.83;;
37477;SDS011;23334;54.316;10.182;2023-10-19T10:17:00;28.27;;;6.20;;
37477;SDS011;23334;54.316;10.182;2023-10-19T10:19:27;14.27;;;5.90;;
37477;SDS011;23334;54.316;10.182;2023-10-19T10:22:08;17.77;;;5.80;;
37477;SDS011;23334;54.316;10.182;2023-10-19T10:24:42;12.50;;;5.67;;
37477;SDS011;23334;54.316;10.182;2023-10-19T10:27:09;18.63;;;5.70;;
37477;SDS011;23334;54.316;10.182;2023-10-19T10:29:54;16.27;;;5.70;;
37477;SDS011;23334;54.316;10.182;2023-10-19T10:38:00;17.57;;;5.30;;
37477;SDS011;23334;54.316;10.182;2023-10-19T10:40:26;19.57;;;5.73;;
37477;SDS011;23334;54.316;10.182;2023-10-19T10:43:04;21.13;;;5.60;;
37477;SDS011;23334;54.316;10.182;2023-10-19T10:45:30;18.37;;;6.20;;
37477;SDS011;23334;54.316;10.182;2023-10-19T10:47:56;15.07;;;5.20;;
37477;SDS011;23334;54.316;10.182;2023-10-19T10:50:22;19.43;;;5.60;;
37477;SDS011;23334;54.316;10.182;2023-10-19T10:52:49;8.57;;;5.10;;
37477;SDS011;23334;54.316;10.182;2023-10-19T10:55:15;12.20;;;5.27;;
37477;SDS011;23334;54.316;10.182;2023-10-19T10:57:41;19.43;;;5.87;;
37477;SDS011;23334;54.316;10.182;2023-10-19T11:00:08;12.57;;;4.70;;
37477;SDS011;23334;54.316;10.182;2023-10-19T11:03:04;18.63;;;5.50;;
37477;SDS011;23334;54.316;10.182;2023-10-19T11:05:32;15.37;;;5.23;;
37477;SDS011;23334;54.316;10.182;2023-10-19T11:08:09;25.37;;;6.63;;
37477;SDS011;23334;54.316;10.182;2023-10-19T11:10:40;13.83;;;5.13;;
37477;SDS011;23334;54.316;10.182;2023-10-19T11:13:08;13.27;;;5.70;;
37477;SDS011;23334;54.316;10.182;2023-10-19T11:15:35;27.40;;;7.13;;
37477;SDS011;23334;54.316;10.182;2023-10-19T11:18:05;10.00;;;4.70;;
37477;SDS011;23334;54.316;10.182;2023-10-19T11:20:34;13.80;;;5.17;;
37477;SDS011;23334;54.316;10.182;2023-10-19T11:23:00;18.90;;;6.40;;
37477;SDS011;23334;54.316;10.182;2023-10-19T11:25:27;20.63;;;5.73;;
37477;SDS011;23334;54.316;10.182;2023-10-19T11:27:55;19.30;;;6.20;;
37477;SDS011;23334;54.316;10.182;2023-10-19T11:30:28;15.93;;;5.77;;
37477;SDS011;23334;54.316;10.182;2023-10-19T11:32:54;17.57;;;6.00;;
37477;SDS011;23334;54.316;10.182;2023-10-19T11:35:26;20.60;;;5.60;;
37477;SDS011;23334;54.316;10.182;2023-10-19T11:37:53;19.83;;;6.23;;
37477;SDS011;23334;54.316;10.182;2023-10-19T11:40:20;21.27;;;6.57;;
37477;SDS011;23334;54.316;10.182;2023-10-19T11:42:46;15.17;;;5.53;;
37477;SDS011;23334;54.316;10.182;2023-10-19T11:45:12;15.73;;;6.00;;
37477;SDS011;23334;54.316;10.182;2023-10-19T11:47:38;15.07;;;5.63;;
37477;SDS011;23334;54.316;10.182;2023-10-19T11:50:05;16.17;;;5.20;;
37477;SDS011;23334;54.316;10.182;2023-10-19T11:52:32;15.27;;;5.83;;
37477;SDS011;23334;54.316;10.182;2023-10-19T11:54:58;17.90;;;6.03;;
37477;SDS011;23334;54.316;10.182;2023-10-19T11:57:24;22.67;;;5.87;;
37477;SDS011;23334;54.316;10.182;2023-10-19T11:59:50;21.93;;;6.47;;
37477;SDS011;23334;54.316;10.182;2023-10-19T12:02:20;17.17;;;5.93;;
37477;SDS011;23334;54.316;10.182;2023-10-19T12:04:45;45.43;;;8.63;;
37477;SDS011;23334;54.316;10.182;2023-10-19T12:07:12;12.50;;;5.53;;
37477;SDS011;23334;54.316;10.182;2023-10-19T12:09:39;17.23;;;6.43;;
37477;SDS011;23334;54.316;10.182;2023-10-19T12:12:07;11.27;;;5.43;;
37477;SDS011;23334;54.316;10.182;2023-10-19T12:14:34;17.47;;;6.20;;
37477;SDS011;23334;54.316;10.182;2023-10-19T12:17:00;19.67;;;5.93;;
37477;SDS011;23334;54.316;10.182;2023-10-19T12:19:27;15.33;;;5.70;;
37477;SDS011;23334;54.316;10.182;2023-10-19T12:21:56;16.93;;;6.07;;
37477;SDS011;23334;54.316;10.182;2023-10-19T12:24:22;14.10;;;5.30;;
37477;SDS011;23334;54.316;10.182;2023-10-19T12:26:49;12.40;;;5.50;;
37477;SDS011;23334;54.316;10.182;2023-10-19T12:29:15;19.37;;;6.00;;
37477;SDS011;23334;54.316;10.182;2023-10-19T12:31:45;21.10;;;6.67;;
37477;SDS011;23334;54.316;10.182;2023-10-19T12:34:11;14.53;;;5.90;;
37477;SDS011;23334;54.316;10.182;2023-10-19T12:36:37;20.87;;;7.00;;
37477;SDS011;23334;54.316;10.182;2023-10-19T12:39:04;19.40;;;6.80;;
37477;SDS011;23334;54.316;10.182;2023-10-19T12:41:33;14.67;;;6.30;;
37477;SDS011;23334;54.316;10.182;2023-10-19T12:43:59;16.07;;;6.63;;
37477;SDS011;23334;54.316;10.182;2023-10-19T12:46:33;22.53;;;7.20;;
37477;SDS011;23334;54.316;10.182;2023-10-19T12:49:05;17.30;;;6.30;;
37477;SDS011;23334;54.316;10.182;2023-10-19T12:51:39;14.83;;;6.70;;
37477;SDS011;23334;54.316;10.182;2023-10-19T12:54:07;14.40;;;7.07;;
37477;SDS011;23334;54.316;10.182;2023-10-19T12:56:35;17.43;;;7.60;;
37477;SDS011;23334;54.316;10.182;2023-10-19T12:59:04;25.73;;;7.00;;
37477;SDS011;23334;54.316;10.182;2023-10-19T13:01:33;17.53;;;7.20;;
37477;SDS011;23334;54.316;10.182;2023-10-19T13:04:00;17.23;;;6.30;;
37477;SDS011;23334;54.316;10.182;2023-10-19T13:06:31;13.73;;;6.37;;
37477;SDS011;23334;54.316;10.182;2023-10-19T13:08:58;31.10;;;7.90;;
37477;SDS011;23334;54.316;10.182;2023-10-19T13:11:23;17.77;;;7.60;;
37477;SDS011;23334;54.316;10.182;2023-10-19T13:13:49;20.70;;;7.50;;
37477;SDS011;23334;54.316;10.182;2023-10-19T13:16:15;24.17;;;8.37;;
37477;SDS011;23334;54.316;10.182;2023-10-19T13:18:42;16.33;;;7.20;;
37477;SDS011;23334;54.316;10.182;2023-10-19T13:21:09;21.00;;;7.40;;
37477;SDS011;23334;54.316;10.182;2023-10-19T13:23:36;24.47;;;7.03;;
37477;SDS011;23334;54.316;10.182;2023-10-19T13:26:02;18.10;;;6.30;;
37477;SDS011;23334;54.316;10.182;2023-10-19T13:28:42;41.90;;;8.77;;
37477;SDS011;23334;54.316;10.182;2023-10-19T13:31:08;14.87;;;5.67;;
37477;SDS011;23334;54.316;10.182;2023-10-19T13:33:34;14.90;;;6.67;;
37477;SDS011;23334;54.316;10.182;2023-10-19T13:36:00;14.30;;;6.33;;
37477;SDS011;23334;54.316;10.182;2023-10-19T13:38:27;16.80;;;7.13;;
37477;SDS011;23334;54.316;10.182;2023-10-19T13:40:53;19.37;;;5.97;;
37477;SDS011;23334;54.316;10.182;2023-10-19T13:43:19;29.87;;;6.63;;
37477;SDS011;23334;54.316;10.182;2023-10-19T13:45:46;19.57;;;7.67;;
37477;SDS011;23334;54.316;10.182;2023-10-19T13:48:14;15.93;;;6.13;;
37477;SDS011;23334;54.316;10.182;2023-10-19T13:50:41;12.10;;;5.47;;
37477;SDS011;23334;54.316;10.182;2023-10-19T13:53:08;24.03;;;6.50;;
37477;SDS011;23334;54.316;10.182;2023-10-19T13:55:34;14.63;;;5.43;;
37477;SDS011;23334;54.316;10.182;2023-10-19T13:58:02;19.43;;;6.00;;
37477;SDS011;23334;54.316;10.182;2023-10-19T14:00:29;14.80;;;6.00;;
37477;SDS011;23334;54.316;10.182;2023-10-19T14:03:06;17.90;;;5.50;;
37477;SDS011;23334;54.316;10.182;2023-10-19T14:05:42;8.83;;;4.60;;
37477;SDS011;23334;54.316;10.182;2023-10-19T14:08:13;16.70;;;5.57;;
37477;SDS011;23334;54.316;10.182;2023-10-19T14:10:39;14.97;;;5.27;;
37477;SDS011;23334;54.316;10.182;2023-10-19T14:13:09;47.43;;;8.23;;
37477;SDS011;23334;54.316;10.182;2023-10-19T14:15:37;31.23;;;7.30;;
37477;SDS011;23334;54.316;10.182;2023-10-19T14:18:03;14.80;;;5.53;;
37477;SDS011;23334;54.316;10.182;2023-10-19T14:20:30;22.77;;;5.93;;
37477;SDS011;23334;54.316;10.182;2023-10-19T14:22:56;15.00;;;5.93;;
37477;SDS011;23334;54.316;10.182;2023-10-19T14:25:22;15.33;;;6.00;;
37477;SDS011;23334;54.316;10.182;2023-10-19T14:27:50;10.73;;;5.33;;
37477;SDS011;23334;54.316;10.182;2023-10-19T14:30:17;19.53;;;6.33;;
37477;SDS011;23334;54.316;10.182;2023-10-19T14:32:46;19.53;;;6.50;;
37477;SDS011;23334;54.316;10.182;2023-10-19T14:35:19;28.30;;;6.50;;
37477;SDS011;23334;54.316;10.182;2023-10-19T14:37:47;16.57;;;5.73;;
37477;SDS011;23334;54.316;10.182;2023-10-19T14:40:18;11.13;;;5.67;;
37477;SDS011;23334;54.316;10.182;2023-10-19T14:42:46;12.97;;;5.97;;
37477;SDS011;23334;54.316;10.182;2023-10-19T14:45:14;28.27;;;6.60;;